sensor_id;sensor_type;location;lat;lon;timestamp;pressure;altitude;pressure_sealevel;temperature;humidity
12360;BME280;6244;51.460;7.090;2023-04-26T00:01:03;100912.75;;;6.10;60.30
12360;BME280;6244;51.460;7.090;2023-04-26T00:05:59;100908.41;;;6.10;61.06
12360;BME280;6244;51.460;7.090;2023-04-26T00:10:59;100922.72;;;5.96;61.13
12360;BME280;6244;51.460;7.090;2023-04-26T00:15:56;100919.22;;;5.95;61.77
12360;BME280;6244;51.460;7.090;2023-04-26T01:01:29;100893.31;;;5.58;63.17
12360;BME280;6244;51.460;7.090;2023-04-26T01:06:27;100898.34;;;5.31;63.72
12360;BME280;6244;51.460;7.090;2023-04-26T01:11:27;100894.53;;;5.45;64.13
12360;BME280;6244;51.460;7.090;2023-04-26T01:16:24;100894.47;;;5.48;64.15
12360;BME280;6244;51.460;7.090;2023-04-26T01:21:23;100902.78;;;5.28;64.21
12360;BME280;6244;51.460;7.090;2023-04-26T01:49:33;100905.00;;;4.72;67.65
12360;BME280;6244;51.460;7.090;2023-04-26T01:54:38;100899.59;;;4.42;68.69
12360;BME280;6244;51.460;7.090;2023-04-26T02:11:32;100909.91;;;4.86;67.68
12360;BME280;6244;51.460;7.090;2023-04-26T02:16:29;100911.69;;;4.84;68.06
12360;BME280;6244;51.460;7.090;2023-04-26T02:21:26;100910.09;;;4.77;67.44
12360;BME280;6244;51.460;7.090;2023-04-26T02:26:24;100912.16;;;4.99;66.74
12360;BME280;6244;51.460;7.090;2023-04-26T02:31:22;100913.97;;;4.96;66.39
12360;BME280;6244;51.460;7.090;2023-04-26T02:36:19;100907.78;;;5.01;66.35
12360;BME280;6244;51.460;7.090;2023-04-26T02:41:15;100894.66;;;4.69;66.40
12360;BME280;6244;51.460;7.090;2023-04-26T02:46:13;100890.75;;;4.88;66.07
12360;BME280;6244;51.460;7.090;2023-04-26T02:51:11;100897.38;;;4.64;66.87
12360;BME280;6244;51.460;7.090;2023-04-26T02:56:08;100901.53;;;4.73;66.60
12360;BME280;6244;51.460;7.090;2023-04-26T03:01:07;100881.56;;;4.36;67.55
12360;BME280;6244;51.460;7.090;2023-04-26T03:06:05;100876.13;;;4.46;68.05
12360;BME280;6244;51.460;7.090;2023-04-26T03:11:05;100879.50;;;4.51;67.90
12360;BME280;6244;51.460;7.090;2023-04-26T03:16:40;100877.56;;;4.20;68.30
12360;BME280;6244;51.460;7.090;2023-04-26T03:21:47;100901.22;;;3.63;70.68
12360;BME280;6244;51.460;7.090;2023-04-26T03:26:47;100897.59;;;4.15;69.71
12360;BME280;6244;51.460;7.090;2023-04-26T03:31:50;100881.22;;;4.11;68.96
12360;BME280;6244;51.460;7.090;2023-04-26T03:36:48;100880.41;;;4.09;69.25
12360;BME280;6244;51.460;7.090;2023-04-26T03:41:47;100886.16;;;4.24;69.32
12360;BME280;6244;51.460;7.090;2023-04-26T03:46:44;100873.47;;;4.10;68.70
12360;BME280;6244;51.460;7.090;2023-04-26T03:51:41;100884.75;;;4.07;68.63
12360;BME280;6244;51.460;7.090;2023-04-26T03:56:37;100884.56;;;4.17;68.24
12360;BME280;6244;51.460;7.090;2023-04-26T04:01:35;100876.22;;;4.02;68.73
12360;BME280;6244;51.460;7.090;2023-04-26T04:06:32;100876.56;;;3.86;68.74
12360;BME280;6244;51.460;7.090;2023-04-26T04:11:29;100874.69;;;3.49;70.70
12360;BME280;6244;51.460;7.090;2023-04-26T04:16:25;100885.59;;;3.66;70.47
12360;BME280;6244;51.460;7.090;2023-04-26T04:27:13;100872.59;;;2.66;73.04
12360;BME280;6244;51.460;7.090;2023-04-26T04:32:11;100878.09;;;3.02;73.49
12360;BME280;6244;51.460;7.090;2023-04-26T04:37:11;100904.91;;;3.51;72.44
12360;BME280;6244;51.460;7.090;2023-04-26T04:47:53;100902.25;;;3.99;69.61
12360;BME280;6244;51.460;7.090;2023-04-26T04:52:50;100907.50;;;3.51;69.99
12360;BME280;6244;51.460;7.090;2023-04-26T04:57:47;100911.34;;;3.29;71.92
12360;BME280;6244;51.460;7.090;2023-04-26T05:02:44;100906.22;;;3.74;71.71
12360;BME280;6244;51.460;7.090;2023-04-26T05:07:43;100902.91;;;3.66;71.08
12360;BME280;6244;51.460;7.090;2023-04-26T05:12:41;100915.03;;;3.14;73.22
12360;BME280;6244;51.460;7.090;2023-04-26T05:17:40;100924.28;;;2.77;74.90
12360;BME280;6244;51.460;7.090;2023-04-26T05:22:37;100938.09;;;2.77;75.60
12360;BME280;6244;51.460;7.090;2023-04-26T05:27:35;100936.00;;;3.01;75.80
12360;BME280;6244;51.460;7.090;2023-04-26T05:32:32;100942.03;;;3.03;74.78
12360;BME280;6244;51.460;7.090;2023-04-26T05:37:29;100938.72;;;2.91;75.50
12360;BME280;6244;51.460;7.090;2023-04-26T05:42:28;100941.44;;;2.82;76.56
12360;BME280;6244;51.460;7.090;2023-04-26T05:47:27;100939.56;;;2.93;75.92
12360;BME280;6244;51.460;7.090;2023-04-26T05:52:23;100947.69;;;2.69;76.99
12360;BME280;6244;51.460;7.090;2023-04-26T05:57:20;100961.59;;;2.63;78.09
12360;BME280;6244;51.460;7.090;2023-04-26T06:02:17;100961.69;;;3.16;78.88
12360;BME280;6244;51.460;7.090;2023-04-26T06:07:17;100960.28;;;3.95;76.08
12360;BME280;6244;51.460;7.090;2023-04-26T06:12:13;100968.97;;;4.39;74.89
12360;BME280;6244;51.460;7.090;2023-04-26T06:17:10;100959.16;;;4.52;73.86
12360;BME280;6244;51.460;7.090;2023-04-26T06:22:06;100965.34;;;4.46;74.30
12360;BME280;6244;51.460;7.090;2023-04-26T06:27:04;100977.41;;;4.89;73.57
12360;BME280;6244;51.460;7.090;2023-04-26T06:32:01;100972.94;;;4.94;72.01
12360;BME280;6244;51.460;7.090;2023-04-26T06:36:57;100976.25;;;5.02;71.83
12360;BME280;6244;51.460;7.090;2023-04-26T06:41:54;100982.09;;;5.12;70.27
12360;BME280;6244;51.460;7.090;2023-04-26T06:46:54;100989.03;;;5.48;67.63
12360;BME280;6244;51.460;7.090;2023-04-26T06:51:51;100990.13;;;5.38;67.18
12360;BME280;6244;51.460;7.090;2023-04-26T06:56:47;100974.94;;;5.55;66.84
12360;BME280;6244;51.460;7.090;2023-04-26T07:01:44;100973.59;;;5.75;66.11
12360;BME280;6244;51.460;7.090;2023-04-26T07:06:42;100969.84;;;6.17;65.94
12360;BME280;6244;51.460;7.090;2023-04-26T07:11:39;100969.00;;;6.48;64.02
12360;BME280;6244;51.460;7.090;2023-04-26T07:16:35;100970.28;;;6.33;62.57
12360;BME280;6244;51.460;7.090;2023-04-26T07:21:32;100975.41;;;6.66;62.94
12360;BME280;6244;51.460;7.090;2023-04-26T07:26:30;100972.25;;;6.55;61.65
12360;BME280;6244;51.460;7.090;2023-04-26T07:31:26;100973.00;;;6.60;58.72
12360;BME280;6244;51.460;7.090;2023-04-26T07:36:23;100973.06;;;6.86;59.18
12360;BME280;6244;51.460;7.090;2023-04-26T07:41:19;100963.59;;;6.84;59.07
12360;BME280;6244;51.460;7.090;2023-04-26T07:46:17;100969.81;;;7.06;56.76
12360;BME280;6244;51.460;7.090;2023-04-26T07:51:14;100963.97;;;7.26;56.42
12360;BME280;6244;51.460;7.090;2023-04-26T07:56:10;100965.09;;;7.45;53.84
12360;BME280;6244;51.460;7.090;2023-04-26T08:01:08;100966.97;;;7.14;55.40
12360;BME280;6244;51.460;7.090;2023-04-26T08:06:07;100963.06;;;7.27;55.22
12360;BME280;6244;51.460;7.090;2023-04-26T08:11:06;100966.75;;;7.21;55.73
12360;BME280;6244;51.460;7.090;2023-04-26T08:16:04;100967.38;;;8.04;53.25
12360;BME280;6244;51.460;7.090;2023-04-26T08:21:00;100963.38;;;8.19;51.63
12360;BME280;6244;51.460;7.090;2023-04-26T08:25:59;100957.25;;;8.20;51.43
12360;BME280;6244;51.460;7.090;2023-04-26T08:30:56;100968.34;;;8.73;50.38
12360;BME280;6244;51.460;7.090;2023-04-26T08:35:53;100954.03;;;8.37;49.54
12360;BME280;6244;51.460;7.090;2023-04-26T08:40:50;100958.19;;;8.17;51.21
12360;BME280;6244;51.460;7.090;2023-04-26T08:45:48;100964.88;;;8.01;50.95
12360;BME280;6244;51.460;7.090;2023-04-26T08:50:45;100960.97;;;8.13;50.10
12360;BME280;6244;51.460;7.090;2023-04-26T08:55:42;100954.66;;;9.32;44.70
12360;BME280;6244;51.460;7.090;2023-04-26T09:00:43;100958.25;;;10.11;44.38
12360;BME280;6244;51.460;7.090;2023-04-26T09:05:41;100963.28;;;9.56;45.33
12360;BME280;6244;51.460;7.090;2023-04-26T09:10:39;100958.59;;;8.77;48.78
12360;BME280;6244;51.460;7.090;2023-04-26T09:15:36;100962.13;;;8.29;50.87
12360;BME280;6244;51.460;7.090;2023-04-26T09:20:33;100974.44;;;7.77;51.94
12360;BME280;6244;51.460;7.090;2023-04-26T09:25:31;100964.44;;;8.62;51.70
12360;BME280;6244;51.460;7.090;2023-04-26T09:30:28;100960.34;;;8.30;49.62
12360;BME280;6244;51.460;7.090;2023-04-26T09:35:28;100968.09;;;8.34;48.82
12360;BME280;6244;51.460;7.090;2023-04-26T09:40:26;100960.50;;;8.50;48.42
12360;BME280;6244;51.460;7.090;2023-04-26T09:45:25;100970.03;;;8.74;50.49
12360;BME280;6244;51.460;7.090;2023-04-26T09:50:26;100957.72;;;9.00;45.73
12360;BME280;6244;51.460;7.090;2023-04-26T09:55:27;100955.28;;;9.59;44.14
12360;BME280;6244;51.460;7.090;2023-04-26T10:00:26;100949.53;;;9.29;45.40
12360;BME280;6244;51.460;7.090;2023-04-26T10:05:22;100939.31;;;10.25;47.09
12360;BME280;6244;51.460;7.090;2023-04-26T10:10:20;100937.72;;;10.21;43.90
12360;BME280;6244;51.460;7.090;2023-04-26T10:15:17;100935.50;;;9.73;47.04
12360;BME280;6244;51.460;7.090;2023-04-26T10:20:16;100944.47;;;9.87;43.78
12360;BME280;6244;51.460;7.090;2023-04-26T10:25:13;100939.03;;;9.09;42.91
12360;BME280;6244;51.460;7.090;2023-04-26T10:30:11;100931.81;;;8.92;42.16
12360;BME280;6244;51.460;7.090;2023-04-26T10:35:09;100938.41;;;9.24;41.15
12360;BME280;6244;51.460;7.090;2023-04-26T10:40:23;100935.91;;;9.41;42.27
12360;BME280;6244;51.460;7.090;2023-04-26T10:45:25;100935.06;;;9.41;42.96
12360;BME280;6244;51.460;7.090;2023-04-26T10:50:22;100934.25;;;9.61;43.52
12360;BME280;6244;51.460;7.090;2023-04-26T11:01:02;100915.59;;;13.16;36.96
12360;BME280;6244;51.460;7.090;2023-04-26T11:05:59;100909.94;;;13.38;38.47
12360;BME280;6244;51.460;7.090;2023-04-26T11:11:06;100906.97;;;13.44;33.00
12360;BME280;6244;51.460;7.090;2023-04-26T11:16:06;100906.66;;;12.41;37.30
12360;BME280;6244;51.460;7.090;2023-04-26T11:21:04;100915.00;;;11.66;39.93
12360;BME280;6244;51.460;7.090;2023-04-26T11:26:01;100910.06;;;11.42;38.91
12360;BME280;6244;51.460;7.090;2023-04-26T11:30:58;100907.13;;;11.66;39.06
12360;BME280;6244;51.460;7.090;2023-04-26T11:35:57;100910.50;;;11.16;40.42
12360;BME280;6244;51.460;7.090;2023-04-26T11:40:55;100901.66;;;11.00;37.38
12360;BME280;6244;51.460;7.090;2023-04-26T11:45:57;100910.13;;;11.93;38.30
12360;BME280;6244;51.460;7.090;2023-04-26T11:50:57;100905.75;;;13.64;37.72
12360;BME280;6244;51.460;7.090;2023-04-26T11:55:54;100894.84;;;12.80;35.69
12360;BME280;6244;51.460;7.090;2023-04-26T12:00:55;100903.47;;;11.68;40.53
12360;BME280;6244;51.460;7.090;2023-04-26T12:05:56;100908.91;;;11.48;41.54
12360;BME280;6244;51.460;7.090;2023-04-26T12:10:53;100899.16;;;11.85;42.46
12360;BME280;6244;51.460;7.090;2023-04-26T12:15:49;100896.94;;;12.73;40.84
12360;BME280;6244;51.460;7.090;2023-04-26T12:20:46;100895.94;;;12.76;38.67
12360;BME280;6244;51.460;7.090;2023-04-26T12:25:55;100902.53;;;12.20;37.38
12360;BME280;6244;51.460;7.090;2023-04-26T12:30:56;100907.47;;;11.75;39.95
12360;BME280;6244;51.460;7.090;2023-04-26T12:35:52;100898.59;;;11.26;40.31
12360;BME280;6244;51.460;7.090;2023-04-26T12:40:49;100902.31;;;11.05;40.25
12360;BME280;6244;51.460;7.090;2023-04-26T12:45:47;100899.38;;;10.75;40.05
12360;BME280;6244;51.460;7.090;2023-04-26T12:50:43;100906.28;;;10.40;39.39
12360;BME280;6244;51.460;7.090;2023-04-26T12:55:40;100907.91;;;10.23;42.03
12360;BME280;6244;51.460;7.090;2023-04-26T13:00:36;100908.78;;;10.04;40.02
12360;BME280;6244;51.460;7.090;2023-04-26T13:05:34;100908.66;;;10.07;42.98
12360;BME280;6244;51.460;7.090;2023-04-26T13:10:31;100903.59;;;10.22;41.32
12360;BME280;6244;51.460;7.090;2023-04-26T13:15:28;100905.44;;;10.39;42.30
12360;BME280;6244;51.460;7.090;2023-04-26T13:20:25;100901.19;;;10.37;40.99
12360;BME280;6244;51.460;7.090;2023-04-26T13:25:22;100896.91;;;10.53;43.91
12360;BME280;6244;51.460;7.090;2023-04-26T13:30:19;100904.69;;;10.92;40.60
12360;BME280;6244;51.460;7.090;2023-04-26T13:35:15;100903.59;;;10.96;40.64
12360;BME280;6244;51.460;7.090;2023-04-26T13:40:12;100898.19;;;10.99;40.62
12360;BME280;6244;51.460;7.090;2023-04-26T13:45:11;100890.88;;;11.06;40.19
12360;BME280;6244;51.460;7.090;2023-04-26T13:50:09;100893.69;;;11.20;39.17
12360;BME280;6244;51.460;7.090;2023-04-26T13:55:06;100896.75;;;11.11;38.63
12360;BME280;6244;51.460;7.090;2023-04-26T14:00:04;100894.28;;;11.08;39.99
12360;BME280;6244;51.460;7.090;2023-04-26T14:05:04;100884.38;;;11.13;38.35
12360;BME280;6244;51.460;7.090;2023-04-26T14:10:03;100889.63;;;11.13;37.49
12360;BME280;6244;51.460;7.090;2023-04-26T14:15:00;100885.16;;;10.98;38.90
12360;BME280;6244;51.460;7.090;2023-04-26T14:19:58;100886.91;;;10.80;36.67
12360;BME280;6244;51.460;7.090;2023-04-26T14:24:56;100886.50;;;10.70;36.85
12360;BME280;6244;51.460;7.090;2023-04-26T14:29:52;100884.03;;;10.67;36.89
12360;BME280;6244;51.460;7.090;2023-04-26T14:34:49;100892.09;;;10.99;40.94
12360;BME280;6244;51.460;7.090;2023-04-26T14:39:46;100893.44;;;11.25;38.74
12360;BME280;6244;51.460;7.090;2023-04-26T14:44:44;100884.88;;;11.21;39.72
12360;BME280;6244;51.460;7.090;2023-04-26T14:49:41;100891.59;;;10.91;37.59
12360;BME280;6244;51.460;7.090;2023-04-26T14:54:38;100883.59;;;10.57;38.49
12360;BME280;6244;51.460;7.090;2023-04-26T14:59:35;100872.47;;;10.88;40.16
12360;BME280;6244;51.460;7.090;2023-04-26T15:04:33;100874.91;;;10.74;36.43
12360;BME280;6244;51.460;7.090;2023-04-26T15:09:31;100860.75;;;11.13;39.90
12360;BME280;6244;51.460;7.090;2023-04-26T15:14:27;100859.44;;;11.56;39.70
12360;BME280;6244;51.460;7.090;2023-04-26T15:19:24;100863.53;;;11.44;41.40
12360;BME280;6244;51.460;7.090;2023-04-26T15:24:22;100864.16;;;11.32;40.92
12360;BME280;6244;51.460;7.090;2023-04-26T15:29:18;100865.00;;;11.33;40.05
12360;BME280;6244;51.460;7.090;2023-04-26T15:34:15;100856.66;;;11.42;39.73
12360;BME280;6244;51.460;7.090;2023-04-26T15:39:11;100865.47;;;11.24;41.88
12360;BME280;6244;51.460;7.090;2023-04-26T15:44:09;100866.31;;;11.07;41.41
12360;BME280;6244;51.460;7.090;2023-04-26T15:49:06;100863.78;;;11.05;40.53
12360;BME280;6244;51.460;7.090;2023-04-26T15:54:03;100860.50;;;11.00;40.49
12360;BME280;6244;51.460;7.090;2023-04-26T15:58:59;100865.06;;;10.97;41.77
12360;BME280;6244;51.460;7.090;2023-04-26T16:03:57;100874.38;;;10.68;42.44
12360;BME280;6244;51.460;7.090;2023-04-26T16:08:54;100869.91;;;10.51;43.22
12360;BME280;6244;51.460;7.090;2023-04-26T16:13:50;100871.28;;;10.22;42.88
12360;BME280;6244;51.460;7.090;2023-04-26T16:18:47;100881.00;;;9.99;43.75
12360;BME280;6244;51.460;7.090;2023-04-26T16:23:45;100874.75;;;10.02;44.98
12360;BME280;6244;51.460;7.090;2023-04-26T16:28:43;100866.72;;;10.07;45.02
12360;BME280;6244;51.460;7.090;2023-04-26T16:33:40;100868.19;;;10.12;44.27
12360;BME280;6244;51.460;7.090;2023-04-26T16:38:36;100864.78;;;10.10;43.83
12360;BME280;6244;51.460;7.090;2023-04-26T16:43:34;100869.03;;;10.13;43.63
12360;BME280;6244;51.460;7.090;2023-04-26T16:48:32;100874.69;;;10.04;43.46
12360;BME280;6244;51.460;7.090;2023-04-26T16:53:30;100873.06;;;10.01;44.67
12360;BME280;6244;51.460;7.090;2023-04-26T16:58:27;100878.53;;;9.96;44.13
12360;BME280;6244;51.460;7.090;2023-04-26T17:03:25;100870.59;;;9.98;43.99
12360;BME280;6244;51.460;7.090;2023-04-26T17:08:22;100873.47;;;9.92;42.53
12360;BME280;6244;51.460;7.090;2023-04-26T17:13:18;100876.22;;;9.89;43.90
12360;BME280;6244;51.460;7.090;2023-04-26T17:18:15;100883.53;;;9.82;43.70
12360;BME280;6244;51.460;7.090;2023-04-26T17:23:13;100878.69;;;9.73;43.49
12360;BME280;6244;51.460;7.090;2023-04-26T17:28:09;100882.44;;;9.67;44.34
12360;BME280;6244;51.460;7.090;2023-04-26T17:33:06;100877.91;;;9.71;45.08
12360;BME280;6244;51.460;7.090;2023-04-26T17:38:02;100874.69;;;9.64;43.97
12360;BME280;6244;51.460;7.090;2023-04-26T17:43:00;100880.16;;;9.60;43.70
12360;BME280;6244;51.460;7.090;2023-04-26T17:47:56;100875.16;;;9.54;44.19
12360;BME280;6244;51.460;7.090;2023-04-26T17:52:53;100880.88;;;9.43;44.96
12360;BME280;6244;51.460;7.090;2023-04-26T17:57:50;100881.78;;;9.42;45.25
12360;BME280;6244;51.460;7.090;2023-04-26T18:02:48;100879.28;;;9.39;45.84
12360;BME280;6244;51.460;7.090;2023-04-26T18:07:44;100892.53;;;9.36;45.19
12360;BME280;6244;51.460;7.090;2023-04-26T18:12:41;100888.41;;;9.30;45.80
12360;BME280;6244;51.460;7.090;2023-04-26T18:17:38;100892.41;;;9.17;45.93
12360;BME280;6244;51.460;7.090;2023-04-26T18:22:35;100897.00;;;9.12;45.63
12360;BME280;6244;51.460;7.090;2023-04-26T18:27:32;100903.03;;;9.14;45.76
12360;BME280;6244;51.460;7.090;2023-04-26T18:32:29;100905.06;;;9.07;46.40
12360;BME280;6244;51.460;7.090;2023-04-26T18:37:26;100905.16;;;9.04;47.37
12360;BME280;6244;51.460;7.090;2023-04-26T18:42:23;100914.78;;;9.04;48.84
12360;BME280;6244;51.460;7.090;2023-04-26T18:47:20;100915.19;;;8.95;48.42
12360;BME280;6244;51.460;7.090;2023-04-26T18:52:16;100915.47;;;8.87;47.89
12360;BME280;6244;51.460;7.090;2023-04-26T18:57:13;100912.28;;;8.79;47.52
12360;BME280;6244;51.460;7.090;2023-04-26T19:02:13;100908.59;;;8.85;49.39
12360;BME280;6244;51.460;7.090;2023-04-26T19:07:10;100912.66;;;8.92;50.32
12360;BME280;6244;51.460;7.090;2023-04-26T19:12:06;100914.63;;;8.87;50.34
12360;BME280;6244;51.460;7.090;2023-04-26T19:17:03;100924.44;;;8.81;51.59
12360;BME280;6244;51.460;7.090;2023-04-26T19:22:00;100929.81;;;8.77;51.81
12360;BME280;6244;51.460;7.090;2023-04-26T19:26:57;100929.88;;;8.75;52.62
12360;BME280;6244;51.460;7.090;2023-04-26T19:31:54;100936.81;;;8.76;52.92
12360;BME280;6244;51.460;7.090;2023-04-26T19:36:50;100940.41;;;8.74;53.10
12360;BME280;6244;51.460;7.090;2023-04-26T19:41:48;100944.53;;;8.58;53.79
12360;BME280;6244;51.460;7.090;2023-04-26T19:46:45;100945.63;;;8.52;54.07
12360;BME280;6244;51.460;7.090;2023-04-26T19:51:41;100950.63;;;8.58;53.87
12360;BME280;6244;51.460;7.090;2023-04-26T19:56:39;100941.81;;;8.61;54.06
12360;BME280;6244;51.460;7.090;2023-04-26T20:01:37;100946.13;;;8.62;54.27
12360;BME280;6244;51.460;7.090;2023-04-26T20:06:34;100956.53;;;8.63;53.74
12360;BME280;6244;51.460;7.090;2023-04-26T20:11:30;100968.25;;;8.53;54.09
12360;BME280;6244;51.460;7.090;2023-04-26T20:16:27;100972.50;;;8.56;54.33
12360;BME280;6244;51.460;7.090;2023-04-26T20:21:25;100973.38;;;8.56;54.50
12360;BME280;6244;51.460;7.090;2023-04-26T20:26:22;100973.38;;;8.56;54.67
12360;BME280;6244;51.460;7.090;2023-04-26T20:31:19;100981.25;;;8.54;55.20
12360;BME280;6244;51.460;7.090;2023-04-26T20:36:16;100977.84;;;8.52;55.68
12360;BME280;6244;51.460;7.090;2023-04-26T20:41:14;100981.44;;;8.50;56.23
12360;BME280;6244;51.460;7.090;2023-04-26T20:46:10;100976.53;;;8.41;56.64
12360;BME280;6244;51.460;7.090;2023-04-26T20:51:07;100973.88;;;8.42;57.10
12360;BME280;6244;51.460;7.090;2023-04-26T20:56:03;100967.69;;;8.45;57.04
12360;BME280;6244;51.460;7.090;2023-04-26T21:01:02;100966.09;;;8.41;57.29
12360;BME280;6244;51.460;7.090;2023-04-26T21:05:59;100966.88;;;8.43;57.05
12360;BME280;6244;51.460;7.090;2023-04-26T21:10:55;100967.84;;;8.40;57.14
12360;BME280;6244;51.460;7.090;2023-04-26T21:15:52;100970.72;;;8.33;56.59
12360;BME280;6244;51.460;7.090;2023-04-26T21:20:50;100976.41;;;8.20;56.46
12360;BME280;6244;51.460;7.090;2023-04-26T21:25:46;100974.84;;;8.15;55.11
12360;BME280;6244;51.460;7.090;2023-04-26T21:30:43;100980.25;;;8.10;55.59
12360;BME280;6244;51.460;7.090;2023-04-26T21:35:39;100985.47;;;8.10;55.49
12360;BME280;6244;51.460;7.090;2023-04-26T21:40:37;100980.38;;;8.07;55.87
12360;BME280;6244;51.460;7.090;2023-04-26T21:45:34;100987.34;;;8.07;56.16
12360;BME280;6244;51.460;7.090;2023-04-26T21:50:30;100989.00;;;8.09;56.40
12360;BME280;6244;51.460;7.090;2023-04-26T21:55:27;100989.97;;;8.07;56.45
12360;BME280;6244;51.460;7.090;2023-04-26T22:00:25;100982.25;;;8.02;57.41
12360;BME280;6244;51.460;7.090;2023-04-26T22:05:22;100983.19;;;8.01;57.97
12360;BME280;6244;51.460;7.090;2023-04-26T22:10:20;100987.88;;;7.91;58.05
12360;BME280;6244;51.460;7.090;2023-04-26T22:15:16;100990.47;;;7.91;57.45
12360;BME280;6244;51.460;7.090;2023-04-26T22:20:14;100994.16;;;7.86;57.52
12360;BME280;6244;51.460;7.090;2023-04-26T22:25:11;100993.44;;;7.82;58.10
12360;BME280;6244;51.460;7.090;2023-04-26T22:30:07;100993.44;;;7.81;58.13
12360;BME280;6244;51.460;7.090;2023-04-26T22:35:05;100997.09;;;7.77;58.49
12360;BME280;6244;51.460;7.090;2023-04-26T22:40:04;100994.47;;;7.77;58.96
12360;BME280;6244;51.460;7.090;2023-04-26T22:45:02;100999.00;;;7.72;58.79
12360;BME280;6244;51.460;7.090;2023-04-26T22:49:59;101009.72;;;7.64;58.52
12360;BME280;6244;51.460;7.090;2023-04-26T22:54:56;101006.34;;;7.34;59.12
12360;BME280;6244;51.460;7.090;2023-04-26T22:59:53;101008.72;;;7.14;59.38
12360;BME280;6244;51.460;7.090;2023-04-26T23:04:50;101011.16;;;7.20;59.14
12360;BME280;6244;51.460;7.090;2023-04-26T23:09:46;101016.97;;;7.28;58.61
12360;BME280;6244;51.460;7.090;2023-04-26T23:14:43;101010.94;;;7.26;59.15
12360;BME280;6244;51.460;7.090;2023-04-26T23:19:42;101014.78;;;7.14;58.84
12360;BME280;6244;51.460;7.090;2023-04-26T23:24:38;101021.78;;;7.14;59.32
12360;BME280;6244;51.460;7.090;2023-04-26T23:29:35;101025.22;;;7.14;59.41
12360;BME280;6244;51.460;7.090;2023-04-26T23:34:31;101020.28;;;7.05;59.43
12360;BME280;6244;51.460;7.090;2023-04-26T23:39:29;101025.75;;;6.97;59.82
12360;BME280;6244;51.460;7.090;2023-04-26T23:44:26;101028.59;;;6.90;59.92
12360;BME280;6244;51.460;7.090;2023-04-26T23:49:22;101025.31;;;6.83;59.97
12360;BME280;6244;51.460;7.090;2023-04-26T23:54:18;101032.31;;;6.81;59.78
12360;BME280;6244;51.460;7.090;2023-04-26T23:59:16;101030.06;;;6.70;59.51
